Map

Track Data

SID SEASON NUMBER BASIN SUBBASIN NAME ISO_TIME NATURE LAT LON WMO_WIND WMO_PRES WMO_AGENCY TRACK_TYPE DIST2LAND LANDFALL IFLAG USA_AGENCY USA_ATCF_ID USA_LAT USA_LON USA_RECORD USA_STATUS USA_WIND USA_PRES USA_SSHS USA_R34_NE USA_R34_SE USA_R34_SW USA_R34_NW USA_R50_NE USA_R50_SE USA_R50_SW USA_R50_NW USA_R64_NE USA_R64_SE USA_R64_SW USA_R64_NW USA_POCI USA_ROCI USA_RMW USA_EYE TOKYO_LAT TOKYO_LON TOKYO_GRADE TOKYO_WIND TOKYO_PRES TOKYO_R50_DIR TOKYO_R50_LONG TOKYO_R50_SHORT TOKYO_R30_DIR TOKYO_R30_LONG TOKYO_R30_SHORT TOKYO_LAND CMA_LAT CMA_LON CMA_CAT CMA_WIND CMA_PRES HKO_LAT HKO_LON HKO_CAT HKO_WIND HKO_PRES NEWDELHI_LAT NEWDELHI_LON NEWDELHI_GRADE NEWDELHI_WIND NEWDELHI_PRES NEWDELHI_CI NEWDELHI_DP NEWDELHI_POCI REUNION_LAT REUNION_LON REUNION_TYPE REUNION_WIND REUNION_PRES REUNION_TNUM REUNION_CI REUNION_RMW REUNION_R34_NE REUNION_R34_SE REUNION_R34_SW REUNION_R34_NW REUNION_R50_NE REUNION_R50_SE REUNION_R50_SW REUNION_R50_NW REUNION_R64_NE REUNION_R64_SE REUNION_R64_SW REUNION_R64_NW BOM_LAT BOM_LON BOM_TYPE BOM_WIND BOM_PRES BOM_TNUM BOM_CI BOM_RMW BOM_R34_NE BOM_R34_SE BOM_R34_SW BOM_R34_NW BOM_R50_NE BOM_R50_SE BOM_R50_SW BOM_R50_NW BOM_R64_NE BOM_R64_SE BOM_R64_SW BOM_R64_NW BOM_ROCI BOM_POCI BOM_EYE BOM_POS_METHOD BOM_PRES_METHOD NADI_LAT NADI_LON NADI_CAT NADI_WIND NADI_PRES WELLINGTON_LAT WELLINGTON_LON WELLINGTON_WIND WELLINGTON_PRES DS824_LAT DS824_LON DS824_STAGE DS824_WIND DS824_PRES TD9636_LAT TD9636_LON TD9636_STAGE TD9636_WIND TD9636_PRES TD9635_LAT TD9635_LON TD9635_WIND TD9635_PRES TD9635_ROCI NEUMANN_LAT NEUMANN_LON NEUMANN_CLASS NEUMANN_WIND NEUMANN_PRES MLC_LAT MLC_LON MLC_CLASS MLC_WIND MLC_PRES USA_GUST BOM_GUST BOM_GUST_PER REUNION_GUST REUNION_GUST_PER USA_SEAHGT USA_SEARAD_NE USA_SEARAD_SE USA_SEARAD_SW USA_SEARAD_NW STORM_SPEED STORM_DIR
1950234N11334 1950 65 NA NA CHARLIE 1950-08-21 12:00:00 TS 11.1000 -26.4000 35 hurdat_atl main 1045 1045 O_____________ hurdat_atl AL031950 11.1000 -26.4000 TS 35 0 12 265
1950234N11334 1950 65 NA NA CHARLIE 1950-08-21 15:00:00 TS 11.0502 -26.9875 main 1106 1106 P_____________ AL031950 11.0502 -26.9875 TS 35 0 12 265
1950234N11334 1950 65 NA NA CHARLIE 1950-08-21 18:00:00 TS 11.0000 -27.6000 35 hurdat_atl main 1171 1171 O_____________ hurdat_atl AL031950 11.0000 -27.6000 TS 35 0 12 265
1950234N11334 1950 65 NA NA CHARLIE 1950-08-21 21:00:00 TS 10.9500 -28.2500 main 1236 1236 P_____________ AL031950 10.9500 -28.2500 TS 35 0 13 266
1950234N11334 1950 65 NA NA CHARLIE 1950-08-22 00:00:00 TS 10.9000 -28.9000 35 hurdat_atl main 1307 1307 O_____________ hurdat_atl AL031950 10.9000 -28.9000 TS 35 0 12 265
1950234N11334 1950 65 NA NA CHARLIE 1950-08-22 03:00:00 TS 10.8498 -29.5000 main 1373 1373 P_____________ AL031950 10.8498 -29.5000 TS 35 0 12 265
1950234N11334 1950 65 NA NA CHARLIE 1950-08-22 06:00:00 TS 10.8000 -30.1000 35 hurdat_atl main 1434 1434 O_____________ hurdat_atl AL031950 10.8000 -30.1000 TS 35 0 12 265
1950234N11334 1950 65 NA NA CHARLIE 1950-08-22 09:00:00 TS 10.7499 -30.7425 main 1500 1500 P_____________ AL031950 10.7499 -30.7425 TS 35 0 13 266
1950234N11334 1950 65 NA NA CHARLIE 1950-08-22 12:00:00 TS 10.7000 -31.4000 35 hurdat_atl main 1573 1573 O_____________ hurdat_atl AL031950 10.7000 -31.4000 TS 35 0 13 265
1950234N11334 1950 65 NA NA CHARLIE 1950-08-22 15:00:00 TS 10.6424 -32.0500 main 1649 1649 P_____________ AL031950 10.6424 -32.0500 TS 35 0 13 266
1950234N11334 1950 65 NA NA CHARLIE 1950-08-22 18:00:00 TS 10.6000 -32.7000 35 hurdat_atl main 1704 1675 O_____________ hurdat_atl AL031950 10.6000 -32.7000 TS 35 0 13 268
1950234N11334 1950 65 NA NA CHARLIE 1950-08-22 21:00:00 TS 10.5924 -33.3574 main 1670 1643 P_____________ AL031950 10.5924 -33.3574 TS 35 0 13 270
1950234N11334 1950 65 NA NA CHARLIE 1950-08-23 00:00:00 TS 10.6000 -34.0000 35 hurdat_atl main 1643 1618 O_____________ hurdat_atl AL031950 10.6000 -34.0000 TS 35 0 12 270
1950234N11334 1950 65 NA NA CHARLIE 1950-08-23 03:00:00 TS 10.5923 -34.6075 main 1618 1596 P_____________ AL031950 10.5923 -34.6075 TS 35 0 12 270
1950234N11334 1950 65 NA NA CHARLIE 1950-08-23 06:00:00 TS 10.6000 -35.2000 35 hurdat_atl main 1596 1576 O_____________ hurdat_atl AL031950 10.6000 -35.2000 TS 35 0 12 272
1950234N11334 1950 65 NA NA CHARLIE 1950-08-23 09:00:00 TS 10.6424 -35.8075 main 1576 1569 P_____________ AL031950 10.6424 -35.8075 TS 35 0 12 275
1950234N11334 1950 65 NA NA CHARLIE 1950-08-23 12:00:00 TS 10.7000 -36.4000 35 hurdat_atl main 1569 1557 O_____________ hurdat_atl AL031950 10.7000 -36.4000 TS 35 0 11 275
1950234N11334 1950 65 NA NA CHARLIE 1950-08-23 15:00:00 TS 10.7424 -36.9576 main 1555 1555 P_____________ AL031950 10.7424 -36.9576 TS 35 0 11 275
1950234N11334 1950 65 NA NA CHARLIE 1950-08-23 18:00:00 TS 10.8000 -37.5000 35 hurdat_atl main 1556 1550 O_____________ hurdat_atl AL031950 10.8000 -37.5000 TS 35 0 11 278
1950234N11334 1950 65 NA NA CHARLIE 1950-08-23 21:00:00 TS 10.8924 -38.0500 main 1559 1555 P_____________ AL031950 10.8924 -38.0500 TS 35 0 11 280
1950234N11334 1950 65 NA NA CHARLIE 1950-08-24 00:00:00 TS 11.0000 -38.6000 35 hurdat_atl main 1563 1545 O_____________ hurdat_atl AL031950 11.0000 -38.6000 TS 35 0 11 280
1950234N11334 1950 65 NA NA CHARLIE 1950-08-24 03:00:00 TS 11.0924 -39.1576 main 1535 1493 P_____________ AL031950 11.0924 -39.1576 TS 35 0 11 280
1950234N11334 1950 65 NA NA CHARLIE 1950-08-24 06:00:00 TS 11.2000 -39.7000 35 hurdat_atl main 1493 1452 O_____________ hurdat_atl AL031950 11.2000 -39.7000 TS 35 0 11 283
1950234N11334 1950 65 NA NA CHARLIE 1950-08-24 09:00:00 TS 11.3349 -40.2076 main 1452 1419 P_____________ AL031950 11.3349 -40.2076 TS 35 0 10 287
1950234N11334 1950 65 NA NA CHARLIE 1950-08-24 12:00:00 TS 11.5000 -40.7000 35 hurdat_atl main 1419 1387 O_____________ hurdat_atl AL031950 11.5000 -40.7000 TS 35 0 10 290
1950234N11334 1950 65 NA NA CHARLIE 1950-08-24 15:00:00 TS 11.6849 -41.2001 main 1387 1357 P_____________ AL031950 11.6849 -41.2001 TS 37 0 11 292
1950234N11334 1950 65 NA NA CHARLIE 1950-08-24 18:00:00 TS 11.9000 -41.7000 40 hurdat_atl main 1357 1329 O_____________ hurdat_atl AL031950 11.9000 -41.7000 TS 40 0 11 295
1950234N11334 1950 65 NA NA CHARLIE 1950-08-24 21:00:00 TS 12.1424 -42.2075 main 1329 1310 P_____________ AL031950 12.1424 -42.2075 TS 40 0 11 297
1950234N11334 1950 65 NA NA CHARLIE 1950-08-25 00:00:00 TS 12.4000 -42.7000 40 hurdat_atl main 1310 1295 O_____________ hurdat_atl AL031950 12.4000 -42.7000 TS 40 0 11 298
1950234N11334 1950 65 NA NA CHARLIE 1950-08-25 03:00:00 TS 12.6424 -43.1576 main 1287 1281 P_____________ AL031950 12.6424 -43.1576 TS 40 0 10 300
1950234N11334 1950 65 NA NA CHARLIE 1950-08-25 06:00:00 TS 12.9000 -43.6000 40 hurdat_atl main 1282 1270 O_____________ hurdat_atl AL031950 12.9000 -43.6000 TS 40 0 10 302
1950234N11334 1950 65 NA NA CHARLIE 1950-08-25 09:00:00 TS 13.1849 -44.0501 main 1272 1267 P_____________ AL031950 13.1849 -44.0501 TS 40 0 11 304
1950234N11334 1950 65 NA NA CHARLIE 1950-08-25 12:00:00 TS 13.5000 -44.5000 40 hurdat_atl main 1272 1266 O_____________ hurdat_atl AL031950 13.5000 -44.5000 TS 40 0 11 307
1950234N11334 1950 65 NA NA CHARLIE 1950-08-25 15:00:00 TS 13.8425 -44.9576 main 1269 1269 P_____________ AL031950 13.8425 -44.9576 TS 40 0 11 309
1950234N11334 1950 65 NA NA CHARLIE 1950-08-25 18:00:00 TS 14.2000 -45.4000 40 hurdat_atl main 1280 1275 O_____________ hurdat_atl AL031950 14.2000 -45.4000 TS 40 0 11 311
1950234N11334 1950 65 NA NA CHARLIE 1950-08-25 21:00:00 TS 14.5424 -45.8002 main 1280 1280 P_____________ AL031950 14.5424 -45.8002 TS 42 0 10 312
1950234N11334 1950 65 NA NA CHARLIE 1950-08-26 00:00:00 TS 14.9000 -46.2000 45 hurdat_atl main 1292 1290 O_____________ hurdat_atl AL031950 14.9000 -46.2000 TS 45 0 11 313
1950234N11334 1950 65 NA NA CHARLIE 1950-08-26 03:00:00 TS 15.2925 -46.6426 main 1307 1302 P_____________ AL031950 15.2925 -46.6426 TS 45 0 12 313
1950234N11334 1950 65 NA NA CHARLIE 1950-08-26 06:00:00 TS 15.7000 -47.1000 45 hurdat_atl main 1320 1320 O_____________ hurdat_atl AL031950 15.7000 -47.1000 TS 45 0 12 313
1950234N11334 1950 65 NA NA CHARLIE 1950-08-26 09:00:00 TS 16.0999 -47.5427 main 1340 1336 P_____________ AL031950 16.0999 -47.5427 TS 45 0 12 313
1950234N11334 1950 65 NA NA CHARLIE 1950-08-26 12:00:00 TS 16.5000 -48.0000 45 hurdat_atl main 1359 1355 O_____________ hurdat_atl AL031950 16.5000 -48.0000 TS 45 0 12 311
1950234N11334 1950 65 NA NA CHARLIE 1950-08-26 15:00:00 TS 16.8999 -48.4927 main 1379 1379 P_____________ AL031950 16.8999 -48.4927 TS 45 0 13 310
1950234N11334 1950 65 NA NA CHARLIE 1950-08-26 18:00:00 TS 17.3000 -49.0000 45 hurdat_atl main 1396 1391 O_____________ hurdat_atl AL031950 17.3000 -49.0000 TS 45 0 13 310
1950234N11334 1950 65 NA NA CHARLIE 1950-08-26 21:00:00 TS 17.6999 -49.5002 main 1416 1412 P_____________ AL031950 17.6999 -49.5002 TS 47 0 12 310
1950234N11334 1950 65 NA NA CHARLIE 1950-08-27 00:00:00 TS 18.1000 -50.0000 50 hurdat_atl main 1440 1427 O_____________ hurdat_atl AL031950 18.1000 -50.0000 TS 50 0 12 310
1950234N11334 1950 65 NA NA CHARLIE 1950-08-27 03:00:00 TS 18.4924 -50.5003 main 1427 1413 P_____________ AL031950 18.4924 -50.5003 TS 52 0 12 310
1950234N11334 1950 65 NA NA CHARLIE 1950-08-27 06:00:00 TS 18.9000 -51.0000 55 hurdat_atl main 1413 1402 O_____________ hurdat_atl AL031950 18.9000 -51.0000 TS 55 0 13 311
1950234N11334 1950 65 NA NA CHARLIE 1950-08-27 09:00:00 TS 19.3274 -51.5078 main 1402 1401 P_____________ AL031950 19.3274 -51.5078 TS 55 0 13 314
1950234N11334 1950 65 NA NA CHARLIE 1950-08-27 12:00:00 TS 19.8000 -52.0000 55 hurdat_atl main 1402 1399 O_____________ hurdat_atl AL031950 19.8000 -52.0000 TS 55 0 13 318
1950234N11334 1950 65 NA NA CHARLIE 1950-08-27 15:00:00 TS 20.3124 -52.4654 main 1390 1356 P_____________ AL031950 20.3124 -52.4654 TS 57 0 14 323
1950234N11334 1950 65 NA NA CHARLIE 1950-08-27 18:00:00 TS 20.9000 -52.9000 60 hurdat_atl main 1358 1330 O_____________ hurdat_atl AL031950 20.9000 -52.9000 TS 60 0 15 328
1950234N11334 1950 65 NA NA CHARLIE 1950-08-27 21:00:00 TS 21.5698 -53.3005 main 1333 1311 P_____________ AL031950 21.5698 -53.3005 TS 62 0 16 332
1950234N11334 1950 65 NA NA CHARLIE 1950-08-28 00:00:00 TS 22.3000 -53.7000 65 hurdat_atl main 1314 1297 O_____________ hurdat_atl AL031950 22.3000 -53.7000 HU 65 1 17 332
1950234N11334 1950 65 NA NA CHARLIE 1950-08-28 03:00:00 TS 23.0649 -54.1426 main 1305 1289 P_____________ AL031950 23.0649 -54.1426 HU 67 1 17 331
1950234N11334 1950 65 NA NA CHARLIE 1950-08-28 06:00:00 TS 23.8000 -54.6000 70 hurdat_atl main 1290 1279 O_____________ hurdat_atl AL031950 23.8000 -54.6000 HU 70 1 16 329
1950234N11334 1950 65 NA NA CHARLIE 1950-08-28 09:00:00 TS 24.4298 -55.0506 main 1276 1273 P_____________ AL031950 24.4298 -55.0506 HU 72 1 15 326
1950234N11334 1950 65 NA NA CHARLIE 1950-08-28 12:00:00 TS 25.0000 -55.5000 75 hurdat_atl main 1276 1269 O_____________ hurdat_atl AL031950 25.0000 -55.5000 HU 75 1 14 324
1950234N11334 1950 65 NA NA CHARLIE 1950-08-28 15:00:00 TS 25.5650 -55.9652 main 1274 1271 P_____________ AL031950 25.5650 -55.9652 HU 77 1 14 324
1950234N11334 1950 65 NA NA CHARLIE 1950-08-28 18:00:00 TS 26.1000 -56.4000 80 hurdat_atl main 1278 1278 O_____________ hurdat_atl AL031950 26.1000 -56.4000 HU 80 1 13 324
1950234N11334 1950 65 NA NA CHARLIE 1950-08-28 21:00:00 TS 26.5925 -56.8026 main 1286 1286 P_____________ AL031950 26.5925 -56.8026 HU 80 1 12 328
1950234N11334 1950 65 NA NA CHARLIE 1950-08-29 00:00:00 TS 27.1000 -57.1000 80 hurdat_atl main 1304 1304 O_____________ hurdat_atl AL031950 27.1000 -57.1000 HU 80 1 12 340
1950234N11334 1950 65 NA NA CHARLIE 1950-08-29 03:00:00 TS 27.6848 -57.2381 main 1347 1347 P_____________ AL031950 27.6848 -57.2381 HU 80 1 12 352
1950234N11334 1950 65 NA NA CHARLIE 1950-08-29 06:00:00 TS 28.3000 -57.3000 80 hurdat_atl main 1392 1392 O_____________ hurdat_atl AL031950 28.3000 -57.3000 HU 80 1 13 353
1950234N11334 1950 65 NA NA CHARLIE 1950-08-29 09:00:00 TS 28.9225 -57.4148 main 1438 1438 P_____________ AL031950 28.9225 -57.4148 HU 82 1 12 352
1950234N11334 1950 65 NA NA CHARLIE 1950-08-29 12:00:00 TS 29.5000 -57.5000 85 974 hurdat_atl main 1487 1487 O_____________ hurdat_atl AL031950 29.5000 -57.5000 HU 85 974 2 11 354
1950234N11334 1950 65 NA NA CHARLIE 1950-08-29 15:00:00 TS 29.9799 -57.5449 main 1533 1533 P_____________ AL031950 29.9799 -57.5449 HU 87 2 9 0
1950234N11334 1950 65 NA NA CHARLIE 1950-08-29 18:00:00 TS 30.4000 -57.5000 90 hurdat_atl main 1570 1570 O_____________ hurdat_atl AL031950 30.4000 -57.5000 HU 90 2 9 12
1950234N11334 1950 65 NA NA CHARLIE 1950-08-29 21:00:00 TS 30.8150 -57.3377 main 1579 1547 P_____________ AL031950 30.8150 -57.3377 HU 90 2 9 23
1950234N11334 1950 65 NA NA CHARLIE 1950-08-30 00:00:00 TS 31.2000 -57.1000 90 hurdat_atl main 1547 1525 O_____________ hurdat_atl AL031950 31.2000 -57.1000 HU 90 2 9 29
1950234N11334 1950 65 NA NA CHARLIE 1950-08-30 03:00:00 TS 31.5650 -56.8574 main 1515 1498 P_____________ AL031950 31.5650 -56.8574 HU 90 2 8 31
1950234N11334 1950 65 NA NA CHARLIE 1950-08-30 06:00:00 TS 31.9000 -56.6000 90 hurdat_atl main 1498 1478 O_____________ hurdat_atl AL031950 31.9000 -56.6000 HU 90 2 8 34
1950234N11334 1950 65 NA NA CHARLIE 1950-08-30 09:00:00 TS 32.2301 -56.3202 main 1482 1463 P_____________ AL031950 32.2301 -56.3202 HU 90 2 7 35
1950234N11334 1950 65 NA NA CHARLIE 1950-08-30 12:00:00 TS 32.5000 -56.1000 90 hurdat_atl main 1463 1448 O_____________ hurdat_atl AL031950 32.5000 -56.1000 HU 90 2 5 31
1950234N11334 1950 65 NA NA CHARLIE 1950-08-30 15:00:00 TS 32.6874 -55.9973 main 1448 1439 P_____________ AL031950 32.6874 -55.9973 HU 90 2 3 16
1950234N11334 1950 65 NA NA CHARLIE 1950-08-30 18:00:00 TS 32.8000 -56.0000 90 hurdat_atl main 1439 1424 O_____________ hurdat_atl AL031950 32.8000 -56.0000 HU 90 2 2 340
1950234N11334 1950 65 NA NA CHARLIE 1950-08-30 21:00:00 TS 32.8800 -56.0774 main 1424 1419 P_____________ AL031950 32.8800 -56.0774 HU 90 2 2 301
1950234N11334 1950 65 NA NA CHARLIE 1950-08-31 00:00:00 TS 32.9000 -56.2000 90 hurdat_atl main 1419 1415 O_____________ hurdat_atl AL031950 32.9000 -56.2000 HU 90 2 2 263
1950234N11334 1950 65 NA NA CHARLIE 1950-08-31 03:00:00 TS 32.8575 -56.2926 main 1415 1415 P_____________ AL031950 32.8575 -56.2926 HU 90 2 2 239
1950234N11334 1950 65 NA NA CHARLIE 1950-08-31 06:00:00 TS 32.8000 -56.4000 90 hurdat_atl main 1419 1415 O_____________ hurdat_atl AL031950 32.8000 -56.4000 HU 90 2 2 251
1950234N11334 1950 65 NA NA CHARLIE 1950-08-31 09:00:00 TS 32.7924 -56.5200 main 1415 1406 P_____________ AL031950 32.7924 -56.5200 HU 92 2 3 270
1950234N11334 1950 65 NA NA CHARLIE 1950-08-31 12:00:00 TS 32.8000 -56.7000 95 hurdat_atl main 1406 1392 O_____________ hurdat_atl AL031950 32.8000 -56.7000 HU 95 2 4 271
1950234N11334 1950 65 NA NA CHARLIE 1950-08-31 15:00:00 TS 32.8001 -56.9775 main 1392 1379 P_____________ AL031950 32.8001 -56.9775 HU 95 2 5 270
1950234N11334 1950 65 NA NA CHARLIE 1950-08-31 18:00:00 TS 32.8000 -57.3000 95 hurdat_atl main 1379 1366 O_____________ hurdat_atl AL031950 32.8000 -57.3000 HU 95 2 5 271
1950234N11334 1950 65 NA NA CHARLIE 1950-08-31 21:00:00 TS 32.8075 -57.6074 main 1366 1353 P_____________ AL031950 32.8075 -57.6074 HU 95 2 5 270
1950234N11334 1950 65 NA NA CHARLIE 1950-09-01 00:00:00 TS 32.8000 -57.9000 95 hurdat_atl main 1353 1345 O_____________ hurdat_atl AL031950 32.8000 -57.9000 HU 95 2 5 264
1950234N11334 1950 65 NA NA CHARLIE 1950-09-01 03:00:00 TS 32.7574 -58.1575 main 1341 1341 P_____________ AL031950 32.7574 -58.1575 HU 92 2 4 257
1950234N11334 1950 65 NA NA CHARLIE 1950-09-01 06:00:00 TS 32.7000 -58.4000 90 hurdat_atl main 1343 1336 O_____________ hurdat_atl AL031950 32.7000 -58.4000 HU 90 2 4 253
1950234N11334 1950 65 NA NA CHARLIE 1950-09-01 09:00:00 TS 32.6349 -58.6426 main 1346 1335 P_____________ AL031950 32.6349 -58.6426 HU 87 2 4 257
1950234N11334 1950 65 NA NA CHARLIE 1950-09-01 12:00:00 TS 32.6000 -58.9000 85 hurdat_atl main 1335 1324 O_____________ hurdat_atl AL031950 32.6000 -58.9000 HU 85 2 5 268
1950234N11334 1950 65 NA NA CHARLIE 1950-09-01 15:00:00 TS 32.6200 -59.1925 main 1324 1303 P_____________ AL031950 32.6200 -59.1925 HU 85 2 5 281
1950234N11334 1950 65 NA NA CHARLIE 1950-09-01 18:00:00 TS 32.7000 -59.5000 85 hurdat_atl main 1303 1283 O_____________ hurdat_atl AL031950 32.7000 -59.5000 HU 85 2 6 293
1950234N11334 1950 65 NA NA CHARLIE 1950-09-01 21:00:00 TS 32.8349 -59.8000 main 1283 1253 P_____________ AL031950 32.8349 -59.8000 HU 82 1 6 301
1950234N11334 1950 65 NA NA CHARLIE 1950-09-02 00:00:00 TS 33.0000 -60.1000 80 hurdat_atl main 1253 1233 O_____________ hurdat_atl AL031950 33.0000 -60.1000 HU 80 1 6 301
1950234N11334 1950 65 NA NA CHARLIE 1950-09-02 03:00:00 TS 33.1425 -60.4076 main 1233 1203 P_____________ AL031950 33.1425 -60.4076 HU 80 1 6 301
1950234N11334 1950 65 NA NA CHARLIE 1950-09-02 06:00:00 TS 33.3000 -60.7000 80 hurdat_atl main 1203 1173 O_____________ hurdat_atl AL031950 33.3000 -60.7000 HU 80 1 6 305
1950234N11334 1950 65 NA NA CHARLIE 1950-09-02 09:00:00 TS 33.4775 -60.9800 main 1173 1147 P_____________ AL031950 33.4775 -60.9800 HU 77 1 6 314
1950234N11334 1950 65 NA NA CHARLIE 1950-09-02 12:00:00 TS 33.7000 -61.2000 75 hurdat_atl main 1147 1112 O_____________ hurdat_atl AL031950 33.7000 -61.2000 HU 75 1 6 330
1950234N11334 1950 65 NA NA CHARLIE 1950-09-02 15:00:00 TS 33.9849 -61.3301 main 1112 1077 P_____________ AL031950 33.9849 -61.3301 HU 75 1 6 344
1950234N11334 1950 65 NA NA CHARLIE 1950-09-02 18:00:00 TS 34.3000 -61.4000 75 980 hurdat_atl main 1077 1043 O_____________ hurdat_atl AL031950 34.3000 -61.4000 HU 75 980 1 6 348
1950234N11334 1950 65 NA NA CHARLIE 1950-09-02 21:00:00 TS 34.6075 -61.4799 main 1043 1011 P_____________ AL031950 34.6075 -61.4799 HU 75 1 6 352
1950234N11334 1950 65 NA NA CHARLIE 1950-09-03 00:00:00 TS 34.9000 -61.5000 75 hurdat_atl main 1011 989 O_____________ hurdat_atl AL031950 34.9000 -61.5000 HU 75 1 5 4
1950234N11334 1950 65 NA NA CHARLIE 1950-09-03 03:00:00 TS 35.1500 -61.4300 main 982 964 P_____________ AL031950 35.1500 -61.4300 HU 75 1 5 18
1950234N11334 1950 65 NA NA CHARLIE 1950-09-03 06:00:00 TS 35.4000 -61.3000 75 hurdat_atl main 964 935 O_____________ hurdat_atl AL031950 35.4000 -61.3000 HU 75 1 6 21
1950234N11334 1950 65 NA NA CHARLIE 1950-09-03 09:00:00 TS 35.7150 -61.1576 main 935 911 P_____________ AL031950 35.7150 -61.1576 HU 75 1 6 22
1950234N11334 1950 65 NA NA CHARLIE 1950-09-03 12:00:00 TS 36.0000 -61.0000 75 hurdat_atl main 911 894 O_____________ hurdat_atl AL031950 36.0000 -61.0000 HU 75 1 5 27
1950234N11334 1950 65 NA NA CHARLIE 1950-09-03 15:00:00 TS 36.1724 -60.8722 main 894 887 P_____________ AL031950 36.1724 -60.8722 HU 72 1 4 39
1950234N11334 1950 65 NA NA CHARLIE 1950-09-03 18:00:00 TS 36.3000 -60.7000 70 hurdat_atl main 891 885 O_____________ hurdat_atl AL031950 36.3000 -60.7000 HU 70 1 4 53
1950234N11334 1950 65 NA NA CHARLIE 1950-09-03 21:00:00 TS 36.4349 -60.4372 main 892 881 P_____________ AL031950 36.4349 -60.4372 HU 67 1 6 58
1950234N11334 1950 65 NA NA CHARLIE 1950-09-04 00:00:00 TS 36.6000 -60.1000 65 hurdat_atl main 885 878 O_____________ hurdat_atl AL031950 36.6000 -60.1000 HU 65 1 7 56
1950234N11334 1950 65 NA NA CHARLIE 1950-09-04 03:00:00 TS 36.8198 -59.7370 main 883 868 P_____________ AL031950 36.8198 -59.7370 HU 65 1 8 52
1950234N11334 1950 65 NA NA CHARLIE 1950-09-04 06:00:00 TS 37.1000 -59.3000 65 hurdat_atl main 873 866 O_____________ hurdat_atl AL031950 37.1000 -59.3000 HU 65 1 10 52
1950234N11334 1950 65 NA NA CHARLIE 1950-09-04 09:00:00 TS 37.4275 -58.7724 main 871 853 P_____________ AL031950 37.4275 -58.7724 HU 62 0 11 51
1950234N11334 1950 65 NA NA CHARLIE 1950-09-04 12:00:00 TS 37.8000 -58.2000 60 hurdat_atl main 856 835 O_____________ hurdat_atl AL031950 37.8000 -58.2000 TS 60 0 11 51
1950234N11334 1950 65 NA NA CHARLIE 1950-09-04 15:00:00 TS 38.1470 -57.6631 main 838 804 P_____________ AL031950 38.1470 -57.6631 TS 57 0 12 47
1950234N11334 1950 65 NA NA CHARLIE 1950-09-04 18:00:00 ET 38.6000 -57.1000 55 hurdat_atl main 804 762 O_____________ hurdat_atl AL031950 38.6000 -57.1000 EX 55 -4 13 39
1950234N11334 1950 65 NA NA CHARLIE 1950-09-04 21:00:00 ET 39.1924 -56.5709 main 762 725 P_____________ AL031950 39.1924 -56.5709 EX 55 -4 17 36
1950234N11334 1950 65 NA NA CHARLIE 1950-09-05 00:00:00 ET 40.0000 -55.8000 55 hurdat_atl main 721 640 O_____________ hurdat_atl AL031950 40.0000 -55.8000 EX 55 -4 23 38
1950234N11334 1950 65 NA NA CHARLIE 1950-09-05 03:00:00 ET 41.0021 -54.7097 main 628 500 P_____________ AL031950 41.0021 -54.7097 EX 52 -4 30 44
1950234N11334 1950 65 NA NA CHARLIE 1950-09-05 06:00:00 ET 42.2000 -53.0000 50 hurdat_atl main 489 402 O_____________ hurdat_atl AL031950 42.2000 -53.0000 EX 50 -4 40 51
1950234N11334 1950 65 NA NA CHARLIE 1950-09-05 09:00:00 ET 43.5022 -50.4770 main 404 403 P_____________ AL031950 43.5022 -50.4770 EX 50 -4 48 57
1950234N11334 1950 65 NA NA CHARLIE 1950-09-05 12:00:00 ET 44.8000 -47.4000 50 hurdat_atl main 485 O_____________ hurdat_atl AL031950 44.8000 -47.4000 EX 50 -4 51 59

About IBTrACS Database

This database is a web-friendly format of International Best Track Archive for Climate Stewardship (IBTrACS), a global best track data archive curated by NOAA dating back to 1842.

Updated: 2021-12-03